Detalii statie AGROSTAR [00001CEF]

Toti senzorii

Date Temperatura solului [C]Precipitatii [mm]Voltaj baterie [mV]HC Air temperature [C]HC Relative humidity [%]Punctul de roua [C]
medieminmaxsumaultimamedieminmaxmediemediemin
2017-08-14 20:00:00 24.5 24.5 24.7 0 6894 20.99 20.34 21.66 55.52 11.5 11.2
2017-08-14 21:00:00 24.4 24.3 24.6 0 6884 20.37 20.3 20.47 55.44 10.9 10.7
2017-08-14 22:00:00 24.2 24.1 24.4 0 6884 20.18 19.76 20.42 54.71 10.6 10.4
2017-08-14 23:00:00 24.1 24 24.2 0 6874 19.35 19.13 19.59 57.75 10.6 10.5
2017-08-15 00:00:00 23.9 23.7 24 0 6864 19.22 19.03 19.47 58.18 10.6 10.6
2017-08-15 01:00:00 23.7 23.6 24 0 6854 18.91 18.78 19.05 58.82 10.5 10.3
2017-08-15 02:00:00 23.5 23.3 23.6 0 6844 18.89 18.7 19.16 58.57 10.4 10.3
2017-08-15 03:00:00 23.2 23.1 23.5 0 6844 18.82 18.6 19.13 58.51 10.3 10.2
2017-08-15 04:00:00 23.1 22.9 23.3 0 6834 19.37 19.31 19.47 56.16 10.2 10
2017-08-15 05:00:00 22.8 22.8 23 0 6826 19.14 18.8 19.52 57.11 10.3 9.9
2017-08-15 06:00:00 22.7 22.6 22.9 0 6826 18.66 18.43 18.93 58.95 10.3 9.9
2017-08-15 07:00:00 22.5 22.4 22.7 0 6864 19.31 19.08 19.62 54.67 9.8 9.6
2017-08-15 08:00:00 22.5 22.4 22.7 0 6982 19.96 19.68 20.25 52.39 9.8 9.6
2017-08-15 09:00:00 22.4 22.3 22.5 0 7254 22.23 20.29 23.27 47.31 10.2 9.5
2017-08-15 10:00:00 22.4 22.3 22.5 0 7274 24.26 23.05 25.95 38.9 9.1 8.4
2017-08-15 11:00:00 22.4 22.3 22.6 0 7264 27.56 25.23 30.29 33.2 9.6 8.3
2017-08-15 12:00:00 22.7 22.6 23 0 7264 30.37 28.23 33.1 29.69 10.3 9.4
2017-08-15 13:00:00 23.3 23.1 23.5 0 7254 33.04 31.7 34.62 26.62 11.1 10.3
2017-08-15 14:00:00 23.7 23.5 24 0 7254 33.47 31.33 35.61 25.03 10.4 9.5
2017-08-15 15:00:00 24.1 24 24.4 0 7254 32.76 30.64 34.55 26.42 10.6 9
2017-08-15 16:00:00 24.5 24.3 24.7 0 7166 31.93 30.08 34.11 28.05 10.7 9.7
2017-08-15 17:00:00 24.7 24.5 24.9 0 7246 32.24 31.5 34.15 26.89 10.4 9.9
2017-08-15 18:00:00 24.8 24.6 25.1 0 7196 30.43 29.54 31.28 30.58 10.9 10.5
2017-08-15 19:00:00 24.9 24.8 25 0 6914 27.42 26.29 29.54 39.08 11.9 11.4
2017-08-15 20:00:00 24.9 24.8 25 0 6884 23.59 21.32 26.07 54.9 13.6 12.5
2017-08-15 21:00:00 24.9 24.8 25 0 6864 20.76 20.23 21.38 64.26 13.6 13
2017-08-15 22:00:00 24.8 24.8 24.9 0 6864 19.44 18.78 20.75 69.91 13.6 13.3
2017-08-15 23:00:00 24.6 24.5 24.8 0 6864 18.55 18.12 18.97 73.95 13.6 13.4
2017-08-16 00:00:00 24.5 24.4 24.7 0 6854 17.84 17.35 18.6 76.62 13.5 13.2
2017-08-16 01:00:00 24.2 24.1 24.5 0 6834 16.86 16.42 17.27 80.38 13.3 13.1
2017-08-16 02:00:00 24 23.8 24.3 0 6826 16.59 16.27 17.44 78.62 12.7 12.5
2017-08-16 03:00:00 23.8 23.6 23.9 0 6816 17.31 16.89 17.73 72.39 12.1 11.9
2017-08-16 04:00:00 23.6 23.5 23.8 0 6816 16.89 16.55 17.08 73.68 11.9 11.8
2017-08-16 05:00:00 23.4 23.1 23.6 0 6806 16.37 15.92 16.9 74.91 11.7 11.7
2017-08-16 06:00:00 23.1 23.1 23.3 0 6806 15.52 15.11 15.98 78.72 11.7 11.5
2017-08-16 07:00:00 23 22.8 23.2 0 6864 16.2 15.94 16.87 76.74 11.9 11.8
2017-08-16 08:00:00 22.8 22.7 23 0 7050 18.67 17.45 19.75 67.9 12.4 12.2
2017-08-16 09:00:00 22.6 22.5 22.7 0 7236 22.48 21.27 23.17 55.71 12.9 12.4
2017-08-16 10:00:00 22.5 22.5 22.6 0 7264 28.82 23.46 32.01 40.31 13.4 12.5
2017-08-16 11:00:00 22.7 22.6 23 0 7254 31.08 29.1 33.04 33.37 12.8 12.3
2017-08-16 12:00:00 23.2 22.9 23.5 0 7254 31.91 29.66 33.04 30.55 12.2 11.1
2017-08-16 13:00:00 23.7 23.5 24.1 0 7254 34.07 32.16 35.44 27.38 12.2 10.4
2017-08-16 14:00:00 24.2 24 24.4 0 7254 34.83 32.67 37.08 26.02 12.1 11.4
2017-08-16 15:00:00 24.6 24.4 25 0 7254 35.08 33.98 35.64 24.55 11.4 10.6
2017-08-16 16:00:00 24.9 24.8 25.1 0 7246 34.97 33.81 36.76 24.1 10.9 10
2017-08-16 17:00:00 25.1 25.1 25.2 0 7246 30.75 28.82 33.83 31.86 11.7 10.6
2017-08-16 18:00:00 25.3 25.3 25.4 0 7166 25.68 24.45 29.78 48.85 13.7 10.8
2017-08-16 19:00:00 25.4 25.3 25.5 0 6914 24.03 23.64 24.26 57.5 14.9 14.3